Time;durP1;ratioP1;P1;durP2;ratioP2;P2;SDS_P1;SDS_P2;PMS_P1;PMS_P2;Temp;Humidity;BMP_temperature;BMP_pressure;BME280_temperature;BME280_humidity;BME280_pressure;Samples;Min_cycle;Max_cycle;Signal;HPM_P1;HPM_P2
2023/04/04 00:01:59;;;;;;;4.35;2.05;;;3.00;79.10;;;;;;5118048;27;20039;-76
2023/04/04 00:04:26;;;;;;;4.00;2.00;;;3.00;79.20;;;;;;5118018;27;20126;-75
2023/04/04 00:06:52;;;;;;;4.38;2.15;;;2.90;79.20;;;;;;5101094;27;20380;-75
2023/04/04 00:09:19;;;;;;;4.13;1.80;;;3.00;79.20;;;;;;5100897;27;20047;-75
2023/04/04 00:11:45;;;;;;;3.80;2.03;;;3.00;79.30;;;;;;5100833;27;20042;-75
2023/04/04 00:14:11;;;;;;;4.10;2.10;;;2.90;79.30;;;;;;5100588;27;20071;-76
2023/04/04 00:16:37;;;;;;;3.47;2.25;;;2.90;79.40;;;;;;5117141;27;20135;-73
2023/04/04 00:19:03;;;;;;;4.80;2.20;;;2.90;79.50;;;;;;5117436;27;20494;-75
2023/04/04 00:21:29;;;;;;;4.85;2.10;;;2.90;79.60;;;;;;5100905;27;20043;-75
2023/04/04 00:23:56;;;;;;;3.03;1.80;;;2.90;79.60;;;;;;5117899;27;20079;-75
2023/04/04 00:26:22;;;;;;;4.80;2.28;;;2.90;79.70;;;;;;5117454;27;20045;-74
2023/04/04 00:28:48;;;;;;;4.53;2.58;;;2.90;79.70;;;;;;5084349;27;20379;-76
2023/04/04 00:31:14;;;;;;;4.28;2.28;;;2.90;79.90;;;;;;5116889;27;20045;-75
2023/04/04 00:33:40;;;;;;;4.78;1.90;;;2.90;79.90;;;;;;5117484;27;20111;-74
2023/04/04 00:36:06;;;;;;;3.38;2.28;;;2.90;79.90;;;;;;5100559;27;20042;-76
2023/04/04 00:38:32;;;;;;;4.85;2.55;;;2.80;79.80;;;;;;5100325;27;20042;-75
2023/04/04 00:40:58;;;;;;;3.15;2.30;;;2.80;79.80;;;;;;5117338;27;20111;-75
2023/04/04 00:43:26;;;;;;;3.65;2.28;;;2.80;79.90;;;;;;5100170;27;20451;-75
2023/04/04 00:45:51;;;;;;;4.30;2.30;;;2.70;80.00;;;;;;5100383;27;20054;-76
2023/04/04 00:48:19;;;;;;;3.95;2.20;;;2.70;80.10;;;;;;5117407;27;20035;-74
2023/04/04 00:50:44;;;;;;;5.25;2.45;;;2.70;80.20;;;;;;5099455;27;20039;-75
2023/04/04 00:53:10;;;;;;;4.45;2.63;;;2.70;80.20;;;;;;5116977;27;20066;-76
2023/04/04 00:55:38;;;;;;;5.60;2.88;;;2.70;80.30;;;;;;5117204;27;20392;-76
2023/04/04 00:58:04;;;;;;;6.78;2.70;;;2.70;80.30;;;;;;5113289;28;20055;-75
2023/04/04 01:00:32;;;;;;;4.82;2.67;;;2.70;80.40;;;;;;5079756;28;20087;-75
2023/04/04 01:02:58;;;;;;;5.07;2.60;;;2.70;80.40;;;;;;5096407;28;20048;-76
2023/04/04 01:05:23;;;;;;;5.65;2.50;;;2.60;80.50;;;;;;5112601;28;20047;-74
2023/04/04 01:07:49;;;;;;;4.50;2.40;;;2.60;80.50;;;;;;5113272;28;20423;-75
2023/04/04 01:10:15;;;;;;;4.53;2.50;;;2.60;80.50;;;;;;5113279;28;20209;-76
2023/04/04 01:12:41;;;;;;;6.95;2.83;;;2.60;80.40;;;;;;5113161;28;20112;-75
2023/04/04 01:15:08;;;;;;;4.05;2.50;;;2.60;80.80;;;;;;5113276;28;20050;-75
2023/04/04 01:17:34;;;;;;;7.35;3.20;;;2.60;80.90;;;;;;5113074;28;20039;-75
2023/04/04 01:20:13;;;;;;;7.20;3.13;;;2.50;81.00;;;;;;5113077;28;20519;-76
2023/04/04 01:22:41;;;;;;;5.70;2.95;;;2.50;80.80;;;;;;5111937;28;20050;-75
2023/04/04 01:25:07;;;;;;;5.22;2.78;;;2.50;81.10;;;;;;5113007;28;20035;-75
2023/04/04 01:27:33;;;;;;;4.10;3.00;;;2.50;81.20;;;;;;5113142;28;20074;-75
2023/04/04 01:30:00;;;;;;;4.80;2.90;;;2.50;81.20;;;;;;5112126;28;20039;-75
2023/04/04 01:32:43;;;;;;;5.50;2.50;;;2.40;81.20;;;;;;5112857;28;20075;-75
2023/04/04 01:35:27;;;;;;;6.07;3.13;;;2.40;81.20;;;;;;5112884;28;20050;-74
2023/04/04 01:38:17;;;;;;;6.70;3.03;;;2.40;81.40;;;;;;5111809;28;20506;-75
2023/04/04 01:40:54;;;;;;;5.85;3.00;;;2.40;81.40;;;;;;5095979;28;20126;-75
2023/04/04 01:43:21;;;;;;;4.50;3.20;;;2.30;81.70;;;;;;5113023;28;20081;-75
2023/04/04 01:45:48;;;;;;;4.47;3.13;;;2.30;81.70;;;;;;5095979;28;20050;-76
2023/04/04 01:48:15;;;;;;;5.00;2.83;;;2.30;81.70;;;;;;5095658;28;20039;-75
2023/04/04 01:50:41;;;;;;;5.05;3.28;;;2.30;81.80;;;;;;5095812;28;20500;-75
2023/04/04 01:53:07;;;;;;;6.45;3.17;;;2.20;81.90;;;;;;5111658;28;20083;-76
2023/04/04 01:55:32;;;;;;;6.60;2.80;;;2.20;81.80;;;;;;5112348;28;20088;-76
2023/04/04 01:57:59;;;;;;;5.22;3.00;;;2.20;81.80;;;;;;5112345;28;20051;-74
2023/04/04 02:00:25;;;;;;;12.20;4.10;;;2.20;81.80;;;;;;5112256;28;20043;-74
2023/04/04 02:02:51;;;;;;;6.93;3.30;;;2.20;81.90;;;;;;5112338;28;20040;-76
2023/04/04 02:05:16;;;;;;;4.60;2.95;;;2.10;81.90;;;;;;5112233;28;20152;-75
2023/04/04 02:07:47;;;;;;;9.15;3.67;;;2.10;82.00;;;;;;5094334;28;20051;-76
2023/04/04 02:10:13;;;;;;;4.78;3.00;;;2.10;82.00;;;;;;5112188;28;20046;-75
2023/04/04 02:12:39;;;;;;;5.38;3.05;;;2.10;82.10;;;;;;5112432;28;20035;-74
2023/04/04 02:15:05;;;;;;;5.70;3.20;;;2.00;82.10;;;;;;5112031;28;20042;-74
2023/04/04 02:17:31;;;;;;;5.55;3.47;;;2.00;82.20;;;;;;5112014;28;20078;-74
2023/04/04 02:19:57;;;;;;;7.03;3.42;;;2.00;82.30;;;;;;5112284;28;20079;-75
2023/04/04 02:22:22;;;;;;;9.05;4.60;;;1.90;82.30;;;;;;5112035;28;20036;-75
2023/04/04 02:24:48;;;;;;;4.57;3.10;;;1.80;82.40;;;;;;5077463;28;20432;-75
2023/04/04 02:27:14;;;;;;;5.95;4.10;;;1.80;82.60;;;;;;5078140;28;20048;-75
2023/04/04 02:29:39;;;;;;;6.90;3.92;;;1.80;82.60;;;;;;5112077;28;20039;-75
2023/04/04 02:32:05;;;;;;;8.88;4.00;;;1.90;83.80;;;;;;5111893;28;20047;-76
2023/04/04 02:34:31;;;;;;;6.72;4.03;;;1.90;84.30;;;;;;5094818;28;20095;-75
2023/04/04 02:36:57;;;;;;;6.82;4.38;;;1.90;84.40;;;;;;5112022;28;20039;-74
2023/04/04 02:39:22;;;;;;;6.82;4.72;;;2.00;84.50;;;;;;5094855;28;20042;-75
2023/04/04 02:41:48;;;;;;;7.82;4.55;;;1.90;84.20;;;;;;5110647;28;20108;-76
2023/04/04 02:44:14;;;;;;;6.22;4.07;;;1.90;83.90;;;;;;5078245;28;20049;-76
2023/04/04 02:46:40;;;;;;;6.78;4.50;;;1.90;83.70;;;;;;5111626;28;20495;-75
2023/04/04 02:49:06;;;;;;;5.57;4.13;;;1.80;83.70;;;;;;5111736;28;20047;-75
2023/04/04 02:51:32;;;;;;;5.88;4.18;;;1.80;83.60;;;;;;5095072;28;20085;-75
2023/04/04 02:53:58;;;;;;;6.20;4.10;;;1.80;83.70;;;;;;5111519;28;20036;-76
2023/04/04 02:56:24;;;;;;;7.88;4.13;;;1.70;83.70;;;;;;5111534;28;20041;-75
2023/04/04 02:58:49;;;;;;;9.82;4.82;;;1.70;83.80;;;;;;5110229;28;20518;-76
2023/04/04 03:01:15;;;;;;;8.77;4.35;;;1.70;83.70;;;;;;5094681;28;20035;-75
2023/04/04 03:03:41;;;;;;;7.43;4.50;;;1.60;83.70;;;;;;5111572;28;20079;-77
2023/04/04 03:06:06;;;;;;;10.00;5.13;;;1.60;83.60;;;;;;5111732;28;20061;-75
2023/04/04 03:08:34;;;;;;;8.20;5.03;;;1.50;83.60;;;;;;5111490;28;20042;-75
2023/04/04 03:11:00;;;;;;;11.13;4.63;;;1.50;83.60;;;;;;5095137;28;20444;-76
2023/04/04 03:13:26;;;;;;;7.60;4.82;;;1.40;83.80;;;;;;5111491;28;20301;-75
2023/04/04 03:16:07;;;;;;;9.70;5.20;;;1.30;83.90;;;;;;5093510;28;20475;-76
2023/04/04 03:18:33;;;;;;;6.45;4.68;;;1.30;83.80;;;;;;5111692;28;20044;-75
2023/04/04 03:20:59;;;;;;;7.20;4.57;;;1.30;84.10;;;;;;5094456;28;20039;-75
2023/04/04 03:23:25;;;;;;;7.15;4.50;;;1.30;84.20;;;;;;5094465;28;20036;-76
2023/04/04 03:25:51;;;;;;;7.78;4.40;;;1.30;84.30;;;;;;5094410;28;20050;-75
2023/04/04 03:28:16;;;;;;;8.20;4.50;;;1.20;84.50;;;;;;5094382;28;20039;-76
2023/04/04 03:30:42;;;;;;;6.45;4.30;;;1.20;84.40;;;;;;5110483;28;20054;-75
2023/04/04 03:33:08;;;;;;;6.97;4.70;;;1.20;84.40;;;;;;5094283;28;20050;-76
2023/04/04 03:35:38;;;;;;;10.32;5.30;;;1.10;84.50;;;;;;5094641;28;20436;-76
2023/04/04 03:38:04;;;;;;;7.20;4.97;;;1.10;84.50;;;;;;5094380;28;20044;-76
2023/04/04 03:40:30;;;;;;;10.18;4.95;;;1.10;84.40;;;;;;5111213;28;20177;-76
2023/04/04 03:42:57;;;;;;;6.60;4.32;;;1.10;84.50;;;;;;5111214;28;20123;-76
2023/04/04 03:45:23;;;;;;;7.68;4.97;;;1.10;84.60;;;;;;5111394;28;20067;-75
2023/04/04 03:47:49;;;;;;;6.75;4.70;;;1.10;84.60;;;;;;5110374;28;20044;-76
2023/04/04 03:50:15;;;;;;;7.05;4.72;;;1.00;84.50;;;;;;5111089;28;20047;-76
2023/04/04 03:52:41;;;;;;;8.18;4.88;;;1.10;84.40;;;;;;5094596;28;20046;-76
2023/04/04 03:55:07;;;;;;;6.40;4.95;;;1.10;84.50;;;;;;5115013;28;20032;-76
2023/04/04 03:57:33;;;;;;;7.00;4.95;;;1.10;84.50;;;;;;5114746;28;20130;-75
2023/04/04 03:59:59;;;;;;;8.43;4.93;;;1.10;84.50;;;;;;5108691;28;20555;-75
2023/04/04 04:02:25;;;;;;;7.75;4.70;;;1.10;84.60;;;;;;5114953;28;20043;-77
2023/04/04 04:04:50;;;;;;;7.18;5.72;;;1.10;84.60;;;;;;5114836;28;20040;-76
2023/04/04 04:07:16;;;;;;;8.25;5.47;;;1.10;84.70;;;;;;5097471;28;20044;-76
2023/04/04 04:09:41;;;;;;;9.23;5.30;;;1.10;84.70;;;;;;5114469;28;20086;-75
2023/04/04 04:12:07;;;;;;;9.45;4.93;;;1.10;84.70;;;;;;5080972;28;20053;-73
2023/04/04 04:14:33;;;;;;;8.77;5.28;;;1.10;84.70;;;;;;5114369;28;20075;-73
2023/04/04 04:16:59;;;;;;;10.18;5.57;;;1.10;84.90;;;;;;5113456;28;20380;-74
2023/04/04 04:19:24;;;;;;;8.65;5.40;;;1.10;84.80;;;;;;5097392;28;20031;-75
2023/04/04 04:21:50;;;;;;;9.82;5.82;;;1.10;84.70;;;;;;5097390;28;20043;-76
2023/04/04 04:24:16;;;;;;;9.10;5.13;;;1.10;84.80;;;;;;5097442;28;20092;-76
2023/04/04 04:26:41;;;;;;;8.73;5.70;;;1.10;84.70;;;;;;5097498;28;20483;-75
2023/04/04 04:29:07;;;;;;;9.52;5.38;;;1.10;84.90;;;;;;5114253;28;20510;-75
2023/04/04 04:31:33;;;;;;;8.63;5.38;;;1.10;85.00;;;;;;5076173;28;20036;-76
2023/04/04 04:33:58;;;;;;;7.28;5.07;;;1.00;85.10;;;;;;5060184;28;20036;-77
2023/04/04 04:36:25;;;;;;;7.63;5.53;;;1.00;85.10;;;;;;5076748;28;20514;-76
2023/04/04 04:38:51;;;;;;;9.57;5.65;;;1.00;85.20;;;;;;5093840;28;20395;-75
2023/04/04 04:41:16;;;;;;;11.15;5.97;;;1.00;85.30;;;;;;5076702;28;20046;-76
2023/04/04 04:43:42;;;;;;;8.60;5.53;;;1.00;85.30;;;;;;5093525;28;20048;-76
2023/04/04 04:46:08;;;;;;;9.60;6.10;;;1.00;85.30;;;;;;5093427;28;20047;-76
2023/04/04 04:48:34;;;;;;;7.75;5.15;;;1.00;85.40;;;;;;5099539;28;20046;-75
2023/04/04 04:50:59;;;;;;;8.52;6.10;;;1.00;85.40;;;;;;5113878;28;20043;-74
2023/04/04 04:53:25;;;;;;;9.82;5.70;;;1.00;85.30;;;;;;5096764;28;20419;-76
2023/04/04 04:55:51;;;;;;;7.55;5.40;;;1.00;85.50;;;;;;5113516;28;20032;-76
2023/04/04 04:58:21;;;;;;;9.15;6.18;;;1.00;85.20;;;;;;5096248;28;20063;-74
2023/04/04 05:00:48;;;;;;;10.07;5.82;;;1.00;85.30;;;;;;5096440;28;20047;-74
2023/04/04 05:03:14;;;;;;;7.57;5.25;;;1.00;85.40;;;;;;5112782;28;20104;-75
2023/04/04 05:05:41;;;;;;;11.07;6.05;;;1.00;85.40;;;;;;5112869;28;20039;-74
2023/04/04 05:08:07;;;;;;;11.05;5.47;;;1.00;85.40;;;;;;5112493;28;20080;-75
2023/04/04 05:10:33;;;;;;;12.05;5.82;;;1.00;85.50;;;;;;5138951;27;20084;-74
2023/04/04 05:12:58;;;;;;;9.70;5.63;;;1.00;85.50;;;;;;5096223;28;20480;-74
2023/04/04 05:15:25;;;;;;;8.85;6.30;;;1.00;85.50;;;;;;5137946;27;20506;-74
2023/04/04 05:17:51;;;;;;;9.32;5.90;;;1.00;85.50;;;;;;5112884;28;20372;-75
2023/04/04 05:20:17;;;;;;;8.88;5.13;;;1.00;85.70;;;;;;5107243;28;20514;-75
2023/04/04 05:22:43;;;;;;;13.90;6.65;;;1.00;85.80;;;;;;5112391;28;20035;-74
2023/04/04 05:25:10;;;;;;;8.05;6.18;;;1.00;85.80;;;;;;5112727;28;20436;-74
2023/04/04 05:27:35;;;;;;;8.60;6.18;;;1.10;85.70;;;;;;5113202;28;20386;-72
2023/04/04 05:30:01;;;;;;;10.00;6.40;;;1.10;85.80;;;;;;5096227;28;20039;-75
2023/04/04 05:32:27;;;;;;;10.82;6.63;;;1.00;85.60;;;;;;5096218;28;20506;-74
2023/04/04 05:34:52;;;;;;;9.93;6.53;;;1.00;85.50;;;;;;5147228;27;20554;-75
2023/04/04 05:37:18;;;;;;;9.18;6.38;;;1.00;85.70;;;;;;5129740;27;20043;-74
2023/04/04 05:39:44;;;;;;;12.63;6.80;;;1.10;85.80;;;;;;5112771;28;20115;-74
2023/04/04 05:42:10;;;;;;;10.40;6.53;;;1.00;85.70;;;;;;5112943;28;20050;-75
2023/04/04 05:44:36;;;;;;;11.38;6.97;;;1.00;85.90;;;;;;5095995;28;20047;-74
2023/04/04 05:47:02;;;;;;;12.00;6.80;;;1.10;86.00;;;;;;5112570;28;20515;-74
2023/04/04 05:49:28;;;;;;;9.73;6.10;;;1.10;86.00;;;;;;5112880;28;20039;-74
2023/04/04 05:51:56;;;;;;;10.40;7.07;;;1.10;86.00;;;;;;5112542;28;20571;-75
2023/04/04 05:54:22;;;;;;;10.75;6.25;;;1.10;86.10;;;;;;5112456;28;20373;-74
2023/04/04 05:56:48;;;;;;;13.15;6.70;;;1.10;86.20;;;;;;5147082;27;20046;-74
2023/04/04 05:59:13;;;;;;;10.60;6.13;;;1.10;86.40;;;;;;5112139;28;20407;-73
2023/04/04 06:01:39;;;;;;;10.32;6.40;;;1.10;86.00;;;;;;5112344;28;20108;-74
2023/04/04 06:04:05;;;;;;;10.30;6.43;;;1.10;86.20;;;;;;5129563;27;20075;-74
2023/04/04 06:06:33;;;;;;;9.38;6.03;;;1.10;86.40;;;;;;5112252;28;20047;-75
2023/04/04 06:08:59;;;;;;;9.10;6.35;;;1.20;86.40;;;;;;5112265;28;20043;-75
2023/04/04 06:11:25;;;;;;;10.75;6.65;;;1.20;86.70;;;;;;5112196;28;20040;-75
2023/04/04 06:13:51;;;;;;;10.30;6.93;;;1.30;86.70;;;;;;5112235;28;20050;-73
2023/04/04 06:16:17;;;;;;;9.68;6.65;;;1.30;86.50;;;;;;5111707;28;20471;-75
2023/04/04 06:18:43;;;;;;;8.13;5.32;;;1.30;86.30;;;;;;5095102;28;20042;-74
2023/04/04 06:21:09;;;;;;;12.57;7.10;;;1.50;86.40;;;;;;5146501;27;20040;-75
2023/04/04 06:23:36;;;;;;;11.88;7.15;;;1.50;86.30;;;;;;5078345;28;20039;-74
2023/04/04 06:26:02;;;;;;;15.38;7.78;;;1.60;86.00;;;;;;5111924;28;20214;-75
2023/04/04 06:28:28;;;;;;;9.60;6.55;;;1.60;86.20;;;;;;5129019;27;20035;-74
2023/04/04 06:30:54;;;;;;;10.63;7.65;;;1.60;86.40;;;;;;5111951;28;20126;-76
2023/04/04 06:33:19;;;;;;;8.57;6.10;;;1.60;86.40;;;;;;5111822;28;20043;-76
2023/04/04 06:35:45;;;;;;;8.80;6.40;;;1.70;86.30;;;;;;5128973;27;20102;-76
2023/04/04 06:38:11;;;;;;;10.63;5.65;;;1.80;86.40;;;;;;5146224;27;20067;-75
2023/04/04 06:40:37;;;;;;;9.32;5.90;;;1.90;86.40;;;;;;5111922;28;20050;-77
2023/04/04 06:43:03;;;;;;;11.10;6.10;;;1.90;86.20;;;;;;5146194;27;20043;-75
2023/04/04 06:45:32;;;;;;;10.07;7.18;;;2.10;86.00;;;;;;5095465;28;20062;-76
2023/04/04 06:47:58;;;;;;;7.20;6.22;;;2.20;85.70;;;;;;5111727;28;20047;-76
2023/04/04 06:50:24;;;;;;;8.18;6.15;;;2.30;85.60;;;;;;5111910;28;20506;-76
2023/04/04 06:52:51;;;;;;;7.72;5.70;;;2.30;85.50;;;;;;5111549;28;20495;-79
2023/04/04 06:55:17;;;;;;;11.48;6.68;;;2.40;85.50;;;;;;5094871;28;20074;-77
2023/04/04 06:57:43;;;;;;;9.45;5.88;;;2.50;85.50;;;;;;5111841;28;20461;-77
2023/04/04 07:00:09;;;;;;;10.77;5.40;;;2.50;85.30;;;;;;5094956;28;20039;-76
2023/04/04 07:02:35;;;;;;;8.70;5.72;;;2.60;85.20;;;;;;5111906;28;20047;-76
2023/04/04 07:05:03;;;;;;;8.15;5.75;;;2.70;85.10;;;;;;5111671;28;20399;-76
2023/04/04 07:07:28;;;;;;;9.90;5.28;;;2.80;85.20;;;;;;5095064;28;20040;-75
2023/04/04 07:09:55;;;;;;;10.45;4.97;;;2.80;85.00;;;;;;5077934;28;20038;-75
2023/04/04 07:12:20;;;;;;;7.25;5.55;;;2.90;84.90;;;;;;5111741;28;20031;-76
2023/04/04 07:14:46;;;;;;;8.35;5.10;;;3.00;84.70;;;;;;5111537;28;20040;-76
2023/04/04 07:17:12;;;;;;;7.72;4.65;;;3.10;84.60;;;;;;5111644;28;20040;-76
2023/04/04 07:19:38;;;;;;;5.30;4.25;;;3.10;84.60;;;;;;5111747;28;20127;-76
2023/04/04 07:22:03;;;;;;;9.27;4.15;;;3.20;84.50;;;;;;5111854;28;20092;-77
2023/04/04 07:24:29;;;;;;;6.97;4.35;;;3.30;84.20;;;;;;5094886;28;20091;-76
2023/04/04 07:26:55;;;;;;;7.55;4.45;;;3.30;83.90;;;;;;5111546;28;20126;-76
2023/04/04 07:29:21;;;;;;;9.18;4.85;;;3.40;83.80;;;;;;5115070;28;20082;-77
2023/04/04 07:31:47;;;;;;;5.65;3.80;;;3.50;83.60;;;;;;5115436;28;20487;-76
2023/04/04 07:34:13;;;;;;;5.22;2.15;;;3.60;83.40;;;;;;5115486;28;20039;-75
2023/04/04 07:36:38;;;;;;;8.73;2.90;;;3.60;77.20;;;;;;5081510;28;20081;-76
2023/04/04 07:39:04;;;;;;;4.88;2.80;;;3.70;79.80;;;;;;5115703;28;20092;-76
2023/04/04 07:41:30;;;;;;;4.43;2.47;;;3.80;79.80;;;;;;5098307;28;20095;-76
2023/04/04 07:43:55;;;;;;;3.40;2.17;;;3.90;78.40;;;;;;5098037;28;20048;-77
2023/04/04 07:46:21;;;;;;;6.03;2.40;;;3.90;77.60;;;;;;5098023;28;20039;-76
2023/04/04 07:48:47;;;;;;;6.57;2.40;;;4.00;78.20;;;;;;5115402;28;20048;-76
2023/04/04 07:51:13;;;;;;;4.57;2.95;;;4.10;77.90;;;;;;5115048;28;20051;-76
2023/04/04 07:53:40;;;;;;;4.30;2.40;;;4.10;75.90;;;;;;5114868;28;20568;-76
2023/04/04 07:56:05;;;;;;;4.25;2.55;;;4.20;75.70;;;;;;5115134;28;20035;-75
2023/04/04 07:58:33;;;;;;;7.75;2.80;;;4.30;75.30;;;;;;5114592;28;20525;-76
2023/04/04 08:01:00;;;;;;;3.90;2.83;;;4.30;75.20;;;;;;5114928;28;20043;-76
2023/04/04 08:03:25;;;;;;;5.55;2.70;;;4.40;76.40;;;;;;5114906;28;20051;-75
2023/04/04 08:05:51;;;;;;;7.57;4.53;;;4.50;76.70;;;;;;5097707;28;20452;-76
2023/04/04 08:08:17;;;;;;;6.10;2.83;;;4.50;77.10;;;;;;5097807;28;20047;-76
2023/04/04 08:10:44;;;;;;;6.10;2.78;;;4.50;74.90;;;;;;5098021;28;20074;-76
2023/04/04 08:13:13;;;;;;;8.77;3.05;;;4.50;75.20;;;;;;5114519;28;20108;-76
2023/04/04 08:15:39;;;;;;;5.60;3.33;;;4.60;76.00;;;;;;5114587;28;20499;-76
2023/04/04 08:18:05;;;;;;;5.15;3.17;;;4.60;76.50;;;;;;5114542;28;20047;-75
2023/04/04 08:20:30;;;;;;;6.90;3.20;;;4.70;76.20;;;;;;5114420;28;20035;-76
2023/04/04 08:22:57;;;;;;;4.60;2.97;;;4.80;76.40;;;;;;5114424;28;20042;-76
2023/04/04 08:25:23;;;;;;;3.75;2.70;;;5.00;76.60;;;;;;5114368;28;20040;-76
2023/04/04 08:27:49;;;;;;;5.32;2.85;;;5.10;75.60;;;;;;5114570;28;20097;-76
2023/04/04 08:30:15;;;;;;;5.57;3.60;;;5.20;75.90;;;;;;5114225;28;20646;-76
2023/04/04 08:32:43;;;;;;;5.50;3.03;;;5.20;72.80;;;;;;5080338;28;20036;-76
2023/04/04 08:35:08;;;;;;;6.40;3.47;;;5.30;73.70;;;;;;5097214;28;20039;-76
2023/04/04 08:37:34;;;;;;;5.72;3.53;;;5.30;74.30;;;;;;5097222;28;20043;-77
2023/04/04 08:40:02;;;;;;;5.32;3.17;;;5.40;74.20;;;;;;5113734;28;20499;-75
2023/04/04 08:42:31;;;;;;;7.97;3.35;;;5.50;74.10;;;;;;5114107;28;20040;-76
2023/04/04 08:45:00;;;;;;;7.13;2.78;;;5.60;74.30;;;;;;5097472;28;20045;-76
2023/04/04 08:47:29;;;;;;;6.82;2.70;;;5.60;73.80;;;;;;5114075;28;20075;-77
2023/04/04 08:49:58;;;;;;;6.85;3.38;;;5.80;74.30;;;;;;5097287;28;20407;-75
2023/04/04 08:52:26;;;;;;;5.78;2.92;;;5.90;73.30;;;;;;5096942;28;20122;-76
2023/04/04 08:54:53;;;;;;;6.63;3.35;;;6.10;73.80;;;;;;5113825;28;20046;-77
2023/04/04 08:57:19;;;;;;;5.65;2.65;;;6.10;73.60;;;;;;5097104;27;20032;-76
2023/04/04 08:59:46;;;;;;;6.72;2.78;;;6.30;73.50;;;;;;5117011;27;20126;-77
2023/04/04 09:02:48;;;;;;;5.30;2.88;;;6.50;72.90;;;;;;5100207;27;20096;-76
2023/04/04 09:05:15;;;;;;;4.82;2.50;;;6.60;72.30;;;;;;5117084;27;20047;-76
2023/04/04 09:07:42;;;;;;;7.55;2.42;;;6.80;70.60;;;;;;5117254;27;20099;-76
2023/04/04 09:10:10;;;;;;;4.00;2.65;;;6.80;72.30;;;;;;5117072;27;20112;-77
2023/04/04 09:12:38;;;;;;;5.05;2.83;;;6.90;70.50;;;;;;5117192;27;20126;-76
2023/04/04 09:15:04;;;;;;;6.55;3.17;;;7.00;71.00;;;;;;5116941;27;20394;-76
2023/04/04 09:17:30;;;;;;;8.00;4.80;;;7.00;70.50;;;;;;5117020;27;20443;-76
2023/04/04 09:19:59;;;;;;;4.70;2.60;;;7.10;68.80;;;;;;5099759;27;20039;-76
2023/04/04 09:22:26;;;;;;;4.63;2.50;;;7.10;68.70;;;;;;5083752;27;20035;-76
2023/04/04 09:24:51;;;;;;;6.05;2.85;;;7.10;67.90;;;;;;5117013;27;20043;-75
2023/04/04 09:27:18;;;;;;;5.25;2.63;;;7.20;68.30;;;;;;5116574;27;20486;-76
2023/04/04 09:29:44;;;;;;;7.47;2.95;;;7.30;68.80;;;;;;5082866;27;20049;-76
2023/04/04 09:32:13;;;;;;;4.85;2.30;;;7.50;68.60;;;;;;5116877;27;20039;-75
2023/04/04 09:34:40;;;;;;;6.95;2.53;;;7.70;68.40;;;;;;5116430;27;20129;-76
2023/04/04 09:37:06;;;;;;;4.30;2.83;;;7.90;68.50;;;;;;5116325;27;20039;-76
2023/04/04 09:39:33;;;;;;;4.85;2.75;;;8.00;67.70;;;;;;5082774;27;20050;-76
2023/04/04 09:42:00;;;;;;;6.28;2.15;;;8.10;67.30;;;;;;5099240;27;20039;-76
2023/04/04 09:44:32;;;;;;;5.68;2.50;;;8.20;66.50;;;;;;5116498;27;20046;-77
2023/04/04 09:47:23;;;;;;;4.30;2.35;;;8.40;66.80;;;;;;5099114;27;20070;-76
2023/04/04 09:49:49;;;;;;;3.35;2.10;;;8.50;66.20;;;;;;5098962;27;20046;-77
2023/04/04 09:52:21;;;;;;;5.13;2.38;;;8.60;65.20;;;;;;5098480;27;20047;-76
2023/04/04 09:55:01;;;;;;;6.13;2.15;;;8.70;64.70;;;;;;5098977;27;20041;-77
2023/04/04 09:57:31;;;;;;;3.95;2.30;;;8.90;64.30;;;;;;5115723;27;20042;-77
2023/04/04 10:00:05;;;;;;;5.90;2.22;;;9.00;64.10;;;;;;5116196;27;20043;-77
2023/04/04 10:02:31;;;;;;;6.80;2.33;;;9.10;62.90;;;;;;5116200;27;20039;-78
2023/04/04 10:04:57;;;;;;;5.35;2.50;;;9.20;61.90;;;;;;5115858;27;20502;-76
2023/04/04 10:07:28;;;;;;;4.18;2.00;;;9.30;61.90;;;;;;5115667;27;20130;-76
2023/04/04 10:09:56;;;;;;;4.97;2.88;;;9.20;60.80;;;;;;5115998;27;20045;-77
2023/04/04 10:12:23;;;;;;;7.32;3.00;;;9.30;59.70;;;;;;5115637;27;20057;-77
2023/04/04 10:14:59;;;;;;;4.93;2.58;;;9.40;59.30;;;;;;5098606;27;20096;-78
2023/04/04 10:17:37;;;;;;;5.07;2.70;;;9.60;58.50;;;;;;5115867;27;20394;-78
2023/04/04 10:20:10;;;;;;;4.20;2.55;;;9.80;58.40;;;;;;5115676;27;20037;-77
2023/04/04 10:22:36;;;;;;;6.30;3.27;;;9.90;56.00;;;;;;5098590;27;20039;-79
2023/04/04 10:25:04;;;;;;;6.97;3.45;;;9.90;56.60;;;;;;5081726;27;20047;-79
2023/04/04 10:27:31;;;;;;;5.13;2.92;;;9.90;54.30;;;;;;5098416;27;20089;-78
2023/04/04 10:29:58;;;;;;;4.85;2.45;;;9.90;55.40;;;;;;5098958;27;20051;-77
2023/04/04 10:33:04;;;;;;;4.82;3.00;;;10.00;56.10;;;;;;5098570;27;20078;-78
2023/04/04 10:35:30;;;;;;;6.38;3.55;;;10.10;56.20;;;;;;5081677;27;20047;-78
2023/04/04 10:38:01;;;;;;;5.97;3.88;;;10.30;55.80;;;;;;5115436;27;20515;-78
2023/04/04 10:40:34;;;;;;;6.50;3.42;;;10.60;55.50;;;;;;5115664;28;20379;-77
2023/04/04 10:43:02;;;;;;;6.05;3.58;;;10.80;55.70;;;;;;5115231;28;20047;-78
2023/04/04 10:45:35;;;;;;;7.70;3.30;;;10.80;54.70;;;;;;5115469;28;20035;-78
2023/04/04 10:48:02;;;;;;;9.07;3.33;;;10.90;54.30;;;;;;5098188;28;20039;-80
2023/04/04 10:50:32;;;;;;;7.07;3.20;;;11.00;54.20;;;;;;5098169;28;20129;-79
2023/04/04 10:53:00;;;;;;;5.70;3.45;;;11.10;54.40;;;;;;5098559;28;20284;-77
2023/04/04 10:55:27;;;;;;;6.03;3.47;;;11.10;54.60;;;;;;5115158;28;20490;-77
2023/04/04 10:57:54;;;;;;;6.22;3.38;;;11.10;53.20;;;;;;5098474;28;20406;-76
2023/04/04 11:00:25;;;;;;;6.25;3.63;;;11.10;52.50;;;;;;5115308;28;20047;-77
2023/04/04 11:02:58;;;;;;;7.38;3.35;;;11.10;53.50;;;;;;5117955;27;20075;-78
2023/04/04 11:05:42;;;;;;;6.18;3.30;;;11.30;53.40;;;;;;5121586;27;20074;-78
2023/04/04 11:08:09;;;;;;;6.07;3.10;;;11.40;51.80;;;;;;5103244;27;20378;-76
2023/04/04 11:10:47;;;;;;;6.32;3.63;;;11.40;52.80;;;;;;5119136;27;20031;-78
2023/04/04 11:13:17;;;;;;;5.80;3.28;;;11.50;52.90;;;;;;5119445;27;20401;-77
2023/04/04 11:15:52;;;;;;;4.95;3.38;;;11.40;51.50;;;;;;5120324;27;20121;-78
2023/04/04 11:18:42;;;;;;;7.18;3.50;;;11.30;51.60;;;;;;5119374;27;20424;-78
2023/04/04 11:21:10;;;;;;;8.18;3.30;;;11.40;52.80;;;;;;5119377;27;20047;-78
2023/04/04 11:23:48;;;;;;;4.72;3.22;;;11.50;53.70;;;;;;5119350;27;20081;-78
2023/04/04 11:26:44;;;;;;;6.95;3.25;;;11.60;52.50;;;;;;5102193;27;20391;-76
2023/04/04 11:29:19;;;;;;;6.93;3.72;;;11.60;48.70;;;;;;5093447;27;20065;-78
2023/04/04 11:31:48;;;;;;;6.32;3.47;;;11.50;50.30;;;;;;5118895;27;20043;-78
2023/04/04 11:34:31;;;;;;;7.60;3.47;;;11.50;51.10;;;;;;5118791;27;20050;-77
2023/04/04 11:37:00;;;;;;;6.03;3.10;;;11.80;51.50;;;;;;5101700;27;20035;-76
2023/04/04 11:39:28;;;;;;;6.63;3.22;;;11.70;48.00;;;;;;5101997;27;20038;-78
2023/04/04 11:42:02;;;;;;;3.45;2.92;;;11.50;47.50;;;;;;5101880;27;20398;-76
2023/04/04 11:44:29;;;;;;;5.30;3.45;;;11.60;49.10;;;;;;5118800;27;20481;-77
2023/04/04 11:47:10;;;;;;;5.40;3.00;;;11.70;48.70;;;;;;5101647;27;20081;-77
2023/04/04 11:49:41;;;;;;;4.95;3.25;;;11.60;47.90;;;;;;5118724;27;20383;-76
2023/04/04 11:52:12;;;;;;;7.18;3.33;;;11.80;49.50;;;;;;5118817;27;20091;-77
2023/04/04 11:54:39;;;;;;;6.57;3.40;;;11.80;47.60;;;;;;5118292;27;20051;-77
2023/04/04 11:57:07;;;;;;;6.28;3.40;;;11.90;48.40;;;;;;5118330;27;20035;-77
2023/04/04 11:59:33;;;;;;;6.97;3.83;;;12.10;49.60;;;;;;5118087;27;20047;-79
2023/04/04 12:02:01;;;;;;;4.10;2.83;;;12.40;49.20;;;;;;5118441;27;20081;-77
2023/04/04 12:04:27;;;;;;;5.57;3.50;;;12.30;45.40;;;;;;5118255;27;20107;-77
2023/04/04 12:06:54;;;;;;;5.00;2.75;;;12.00;45.80;;;;;;5118049;27;20075;-75
2023/04/04 12:09:24;;;;;;;5.82;3.10;;;12.00;47.00;;;;;;5118488;27;20458;-76
2023/04/04 12:11:50;;;;;;;6.35;3.83;;;12.00;47.70;;;;;;5118202;27;20043;-76
2023/04/04 12:14:22;;;;;;;5.55;3.28;;;12.10;48.10;;;;;;5117347;27;20043;-78
2023/04/04 12:16:49;;;;;;;5.82;3.47;;;12.30;48.70;;;;;;5118384;27;20543;-77
2023/04/04 12:19:17;;;;;;;6.18;3.55;;;12.40;47.50;;;;;;5118985;27;20390;-78
2023/04/04 12:21:46;;;;;;;6.65;3.53;;;12.60;48.60;;;;;;5101061;27;20092;-78
2023/04/04 12:24:12;;;;;;;4.45;3.10;;;12.80;48.20;;;;;;5117891;27;20077;-80
2023/04/04 12:26:44;;;;;;;5.05;3.15;;;13.00;47.60;;;;;;5117730;27;20042;-77
2023/04/04 12:29:11;;;;;;;4.75;2.85;;;13.10;48.10;;;;;;5117827;27;20047;-77
2023/04/04 12:31:40;;;;;;;6.18;3.67;;;13.30;48.00;;;;;;5100653;27;20074;-79
2023/04/04 12:34:07;;;;;;;6.20;3.78;;;13.30;46.50;;;;;;5101169;27;20084;-81
2023/04/04 12:36:38;;;;;;;3.92;3.05;;;13.50;45.90;;;;;;5118454;27;20122;-80
2023/04/04 12:39:08;;;;;;;4.55;3.00;;;13.40;43.40;;;;;;5101158;27;20039;-78
2023/04/04 12:41:35;;;;;;;8.30;3.42;;;13.20;44.50;;;;;;5117668;27;20122;-79
2023/04/04 12:44:06;;;;;;;6.13;2.95;;;13.10;43.70;;;;;;5117624;27;20393;-77
2023/04/04 12:46:39;;;;;;;5.25;3.33;;;13.00;43.60;;;;;;5117467;27;20050;-78
2023/04/04 12:49:07;;;;;;;8.52;4.32;;;13.10;43.90;;;;;;5117714;27;20046;-78
2023/04/04 12:51:34;;;;;;;5.40;3.42;;;13.30;43.80;;;;;;5117281;27;20050;-78
2023/04/04 12:54:02;;;;;;;5.30;3.15;;;13.50;43.40;;;;;;5117227;27;20042;-78
2023/04/04 12:56:28;;;;;;;7.70;4.10;;;13.70;44.50;;;;;;5084006;27;20035;-79